createdAt,value
2023-01-20T00:01:31.563Z,98893.56
2023-01-20T00:03:58.695Z,98891.97
2023-01-20T00:06:30.121Z,98901.00
2023-01-20T00:08:59.562Z,98896.16
2023-01-20T00:11:27.391Z,98893.97
2023-01-20T00:13:59.078Z,98904.03
2023-01-20T00:16:40.835Z,98906.16
2023-01-20T00:19:07.804Z,98905.03
2023-01-20T00:21:35.132Z,98906.00
2023-01-20T00:24:01.808Z,98901.69
2023-01-20T00:26:28.391Z,98904.72
2023-01-20T00:28:57.663Z,98905.22
2023-01-20T00:31:29.857Z,98911.25
2023-01-20T00:33:58.902Z,98910.44
2023-01-20T00:36:26.916Z,98917.88
2023-01-20T00:38:53.912Z,98922.63
2023-01-20T00:41:20.525Z,98930.03
2023-01-20T00:43:47.320Z,98924.38
2023-01-20T00:46:14.891Z,98937.31
2023-01-20T00:48:41.948Z,98936.47
2023-01-20T00:51:09.567Z,98935.09
2023-01-20T00:53:36.627Z,98932.34
2023-01-20T00:56:03.415Z,98932.81
2023-01-20T00:58:30.023Z,98934.31
2023-01-20T01:00:58.742Z,98927.88
2023-01-20T01:03:28.011Z,98934.81
2023-01-20T01:05:54.744Z,98942.69
2023-01-20T01:08:21.281Z,98943.97
2023-01-20T01:10:47.842Z,98948.97
2023-01-20T01:13:14.421Z,98944.91
2023-01-20T01:15:48.350Z,98959.94
2023-01-20T01:18:15.028Z,98967.91
2023-01-20T01:20:41.593Z,98970.00
2023-01-20T01:23:08.155Z,98968.38
2023-01-20T01:25:34.734Z,98974.19
2023-01-20T01:28:01.357Z,98970.97
2023-01-20T01:30:27.969Z,98990.59
2023-01-20T01:32:54.591Z,98994.28
2023-01-20T01:35:21.133Z,98999.25
2023-01-20T01:37:47.712Z,99005.84
2023-01-20T01:40:14.439Z,99007.94
2023-01-20T01:42:42.883Z,99010.00
2023-01-20T01:45:12.778Z,99006.31
2023-01-20T01:47:44.744Z,99014.88
2023-01-20T01:50:18.011Z,99018.09
2023-01-20T01:52:47.636Z,99019.22
2023-01-20T01:55:19.087Z,99026.25
2023-01-20T01:57:47.212Z,99029.00
2023-01-20T02:00:13.992Z,99029.13
2023-01-20T02:02:43.588Z,99038.13
2023-01-20T02:05:12.248Z,99025.88
2023-01-20T02:07:39.548Z,99027.72
2023-01-20T02:10:06.908Z,99033.84
2023-01-20T02:12:33.591Z,99032.34
2023-01-20T02:15:03.214Z,99026.31
2023-01-20T02:17:41.988Z,99032.19
2023-01-20T02:20:30.180Z,99028.97
2023-01-20T02:23:18.352Z,99032.34
2023-01-20T02:25:56.808Z,99040.19
2023-01-20T02:29:01.614Z,99041.13
2023-01-20T02:31:46.644Z,99044.34
2023-01-20T02:34:19.529Z,99042.75
2023-01-20T02:36:55.697Z,99041.97
2023-01-20T02:39:36.495Z,99047.59
2023-01-20T02:42:05.749Z,99045.06
2023-01-20T02:44:52.041Z,99053.03
2023-01-20T02:47:21.288Z,99049.91
2023-01-20T02:50:16.144Z,99057.28
2023-01-20T02:52:46.635Z,99066.41
2023-01-20T02:55:19.321Z,99061.09
2023-01-20T02:57:50.572Z,99053.69
2023-01-20T03:00:29.303Z,99057.38
2023-01-20T03:03:00.246Z,99067.53
2023-01-20T03:05:31.840Z,99066.97
2023-01-20T03:08:02.546Z,99064.88
2023-01-20T03:10:32.393Z,99061.19
2023-01-20T03:13:13.824Z,99060.59
2023-01-20T03:16:07.919Z,99074.38
2023-01-20T03:18:36.012Z,99076.75
2023-01-20T03:21:05.181Z,99072.75
2023-01-20T03:23:35.299Z,99077.50
2023-01-20T03:26:08.980Z,99080.16
2023-01-20T03:28:35.734Z,99071.94
2023-01-20T03:31:11.645Z,99081.75
2023-01-20T03:33:38.724Z,99086.50
2023-01-20T03:36:05.902Z,99089.59
2023-01-20T03:38:32.443Z,99089.50
2023-01-20T03:41:11.271Z,99095.28
2023-01-20T03:43:52.743Z,99095.84
2023-01-20T03:46:44.945Z,99099.56
2023-01-20T03:49:11.354Z,99098.41
2023-01-20T03:51:43.853Z,99105.22
2023-01-20T03:54:18.338Z,99114.53
2023-01-20T03:56:56.673Z,99110.28
2023-01-20T03:59:23.857Z,99115.38
2023-01-20T04:01:52.652Z,99113.06
2023-01-20T04:04:20.216Z,99115.72
2023-01-20T04:06:49.860Z,99121.03
2023-01-20T04:09:23.548Z,99124.13
2023-01-20T04:11:50.941Z,99129.69
2023-01-20T04:14:17.649Z,99144.47
2023-01-20T04:16:51.182Z,99133.97
2023-01-20T04:19:17.758Z,99138.13
2023-01-20T04:21:51.539Z,99135.38
2023-01-20T04:24:33.040Z,99136.53
2023-01-20T04:26:59.581Z,99145.75
2023-01-20T04:29:26.204Z,99152.00
2023-01-20T04:31:59.420Z,99148.41
2023-01-20T04:34:26.448Z,99153.34
2023-01-20T04:36:53.117Z,99143.66
2023-01-20T04:39:20.075Z,99149.44
2023-01-20T04:41:47.662Z,99153.13
2023-01-20T04:44:14.397Z,99155.41
2023-01-20T04:46:41.128Z,99158.88
2023-01-20T04:49:07.995Z,99154.06
2023-01-20T04:51:34.636Z,99161.44
2023-01-20T04:54:01.264Z,99167.16
2023-01-20T04:56:27.900Z,99161.75
2023-01-20T04:58:54.505Z,99170.16
2023-01-20T05:01:21.137Z,99164.06
2023-01-20T05:03:47.811Z,99168.09
2023-01-20T05:06:14.911Z,99162.00
2023-01-20T05:08:41.529Z,99162.78
2023-01-20T05:11:08.281Z,99183.53
2023-01-20T05:13:39.046Z,99179.84
2023-01-20T05:16:10.024Z,99178.38
2023-01-20T05:18:36.997Z,99183.91
2023-01-20T05:21:05.232Z,99185.97
2023-01-20T05:23:32.008Z,99193.69
2023-01-20T05:25:58.682Z,99193.69
2023-01-20T05:28:25.362Z,99194.53
2023-01-20T05:30:52.205Z,99198.56
2023-01-20T05:33:18.961Z,99203.44
2023-01-20T05:35:45.591Z,99206.66
2023-01-20T05:38:12.273Z,99212.31
2023-01-20T05:40:38.907Z,99210.00
2023-01-20T05:43:05.472Z,99204.25
2023-01-20T05:45:32.526Z,99204.38
2023-01-20T05:48:00.269Z,99201.59
2023-01-20T05:50:28.396Z,99206.22
2023-01-20T05:52:55.034Z,99212.94
2023-01-20T05:55:21.815Z,99217.53
2023-01-20T05:57:48.374Z,99215.81
2023-01-20T06:00:15.297Z,99218.94
2023-01-20T06:02:42.077Z,99211.41
2023-01-20T06:05:08.914Z,99220.47
2023-01-20T06:07:35.540Z,99213.78
2023-01-20T06:10:02.610Z,99219.06
2023-01-20T06:12:29.210Z,99214.34
2023-01-20T06:14:55.742Z,99223.53
2023-01-20T06:17:22.293Z,99234.88
2023-01-20T06:19:49.043Z,99228.72
2023-01-20T06:22:15.964Z,99241.16
2023-01-20T06:24:42.513Z,99247.00
2023-01-20T06:27:10.058Z,99245.31
2023-01-20T06:29:36.970Z,99250.66
2023-01-20T06:32:04.224Z,99252.06
2023-01-20T06:34:30.916Z,99258.31
2023-01-20T06:36:58.315Z,99257.16
2023-01-20T06:39:24.922Z,99259.94
2023-01-20T06:41:51.517Z,99268.84
2023-01-20T06:44:18.150Z,99269.78
2023-01-20T06:46:46.749Z,99282.13
2023-01-20T06:49:14.786Z,99278.53
2023-01-20T06:51:41.895Z,99277.38
2023-01-20T06:54:08.660Z,99283.16
2023-01-20T06:56:35.562Z,99283.63
2023-01-20T06:59:02.263Z,99292.63
2023-01-20T07:01:31.098Z,99285.34
2023-01-20T07:03:57.849Z,99297.22
2023-01-20T07:06:39.607Z,99294.00
2023-01-20T07:09:12.467Z,99306.69
2023-01-20T07:11:39.843Z,99301.38
2023-01-20T07:14:07.009Z,99312.00
2023-01-20T07:16:34.882Z,99303.47
2023-01-20T07:19:01.568Z,99316.53
2023-01-20T07:21:28.232Z,99321.84
2023-01-20T07:23:54.974Z,99327.94
2023-01-20T07:26:24.388Z,99318.47
2023-01-20T07:28:52.123Z,99326.22
2023-01-20T07:31:21.715Z,99330.13
2023-01-20T07:33:49.192Z,99332.00
2023-01-20T07:36:16.852Z,99338.09
2023-01-20T07:38:46.395Z,99349.09
2023-01-20T07:41:16.399Z,99348.63
2023-01-20T07:43:46.345Z,99355.56
2023-01-20T07:46:14.085Z,99366.09
2023-01-20T07:48:41.219Z,99370.47
2023-01-20T07:51:10.303Z,99372.22
2023-01-20T07:53:48.165Z,99372.38
2023-01-20T07:56:16.277Z,99369.25
2023-01-20T07:58:45.358Z,99384.94
2023-01-20T08:01:13.774Z,99384.94
2023-01-20T08:03:40.453Z,99388.44
2023-01-20T08:06:09.674Z,99387.38
2023-01-20T08:08:36.539Z,99387.47
2023-01-20T08:11:04.147Z,99388.16
2023-01-20T08:13:32.091Z,99390.81
2023-01-20T08:16:05.012Z,99390.38
2023-01-20T08:18:32.774Z,99388.31
2023-01-20T08:20:59.983Z,99398.59
2023-01-20T08:23:26.628Z,99395.47
2023-01-20T08:26:02.122Z,99404.38
2023-01-20T08:28:29.749Z,99408.00
2023-01-20T08:31:04.846Z,99402.22
2023-01-20T08:33:31.610Z,99405.56
2023-01-20T08:36:06.071Z,99412.03
2023-01-20T08:38:32.683Z,99414.22
2023-01-20T08:40:59.350Z,99418.53
2023-01-20T08:43:25.905Z,99420.81
2023-01-20T08:45:59.963Z,99412.03
2023-01-20T08:48:26.673Z,99421.97
2023-01-20T08:50:53.239Z,99425.56
2023-01-20T08:53:20.097Z,99425.09
2023-01-20T08:55:56.003Z,99428.56
2023-01-20T08:58:25.219Z,99426.25
2023-01-20T09:00:52.399Z,99431.69
2023-01-20T09:03:19.059Z,99435.97
2023-01-20T09:05:46.182Z,99425.34
2023-01-20T09:08:13.127Z,99439.22
2023-01-20T09:10:39.782Z,99446.50
2023-01-20T09:13:06.908Z,99448.94
2023-01-20T09:15:33.726Z,99450.09
2023-01-20T09:18:00.421Z,99453.34
2023-01-20T09:20:28.926Z,99448.00
2023-01-20T09:22:55.653Z,99460.75
2023-01-20T09:25:22.480Z,99458.75
2023-01-20T09:27:49.093Z,99463.75
2023-01-20T09:30:15.928Z,99447.44
2023-01-20T09:32:42.519Z,99457.81
2023-01-20T09:35:09.497Z,99462.09
2023-01-20T09:37:54.898Z,99460.47
2023-01-20T09:40:53.490Z,99465.38
2023-01-20T09:43:51.702Z,99469.06
2023-01-20T09:46:38.714Z,99468.47
2023-01-20T09:49:29.986Z,99471.59
2023-01-20T09:52:45.660Z,99484.31
2023-01-20T09:55:42.802Z,99480.59
2023-01-20T09:58:11.277Z,99483.16
2023-01-20T10:00:41.076Z,99477.63
2023-01-20T10:03:37.179Z,99473.94
2023-01-20T10:06:26.395Z,99493.47
2023-01-20T10:09:06.764Z,99485.72
2023-01-20T10:11:39.099Z,99484.09
2023-01-20T10:14:29.753Z,99491.63
2023-01-20T10:17:05.298Z,99486.31
2023-01-20T10:19:42.405Z,99490.09
2023-01-20T10:22:20.749Z,99499.81
2023-01-20T10:24:56.141Z,99500.66
2023-01-20T10:27:26.697Z,99500.41
2023-01-20T10:30:02.922Z,99491.41
2023-01-20T10:32:36.756Z,99493.94
2023-01-20T10:35:25.869Z,99481.56
2023-01-20T10:37:53.544Z,99477.63
2023-01-20T10:40:44.839Z,99478.97
2023-01-20T10:43:16.609Z,99486.84
2023-01-20T10:45:58.819Z,99470.41
2023-01-20T10:48:37.762Z,99462.50
2023-01-20T10:51:19.697Z,99462.16
2023-01-20T10:54:10.809Z,99452.88
2023-01-20T10:56:45.868Z,99459.69
2023-01-20T10:59:17.975Z,99459.22
2023-01-20T11:01:56.249Z,99450.19
2023-01-20T11:04:26.264Z,99454.25
2023-01-20T11:06:56.800Z,99462.00
2023-01-20T11:09:34.338Z,99462.44
2023-01-20T11:12:06.663Z,99459.56
2023-01-20T11:14:33.998Z,99461.53
2023-01-20T11:17:04.750Z,99460.56
2023-01-20T11:19:54.443Z,99462.75
2023-01-20T11:22:28.050Z,99463.69
2023-01-20T11:24:56.745Z,99475.13
2023-01-20T11:27:26.912Z,99471.22
2023-01-20T11:30:00.220Z,99467.09
2023-01-20T11:32:34.960Z,99464.31
2023-01-20T11:35:18.215Z,99467.78
2023-01-20T11:37:44.817Z,99472.31
2023-01-20T11:40:26.050Z,99475.69
2023-01-20T11:42:53.915Z,99469.44
2023-01-20T11:45:34.853Z,99467.34
2023-01-20T11:48:17.943Z,99462.56
2023-01-20T11:50:57.475Z,99458.97
2023-01-20T11:53:27.446Z,99455.13
2023-01-20T11:56:15.438Z,99451.75
2023-01-20T11:58:56.019Z,99451.75
2023-01-20T12:01:28.632Z,99458.22
2023-01-20T12:04:18.570Z,99453.69
2023-01-20T12:07:23.680Z,99444.50
2023-01-20T12:09:54.464Z,99441.78
2023-01-20T12:12:32.273Z,99437.09
2023-01-20T12:15:23.007Z,99437.28
2023-01-20T12:17:58.903Z,99437.44
2023-01-20T12:20:42.380Z,99437.84
2023-01-20T12:23:48.676Z,99435.03
2023-01-20T12:26:18.147Z,99432.59
2023-01-20T12:29:07.404Z,99445.69
2023-01-20T12:31:34.303Z,99440.69
2023-01-20T12:34:05.189Z,99438.59
2023-01-20T12:36:46.852Z,99433.56
2023-01-20T12:39:31.883Z,99425.41
2023-01-20T12:42:10.632Z,99426.94
2023-01-20T12:44:45.964Z,99421.44
2023-01-20T12:47:21.508Z,99426.94
2023-01-20T12:50:11.366Z,99416.75
2023-01-20T12:52:52.942Z,99422.25
2023-01-20T12:55:37.916Z,99423.31
2023-01-20T12:58:19.439Z,99435.19
2023-01-20T13:00:55.140Z,99423.31
2023-01-20T13:03:36.751Z,99429.69
2023-01-20T13:06:19.251Z,99431.78
2023-01-20T13:08:45.756Z,99431.13
2023-01-20T13:11:17.251Z,99424.00
2023-01-20T13:13:57.639Z,99415.94
2023-01-20T13:16:41.703Z,99416.25
2023-01-20T13:19:29.083Z,99411.66
2023-01-20T13:22:07.313Z,99418.19
2023-01-20T13:24:34.906Z,99421.03
2023-01-20T13:27:02.668Z,99416.59
2023-01-20T13:29:37.896Z,99416.75
2023-01-20T13:32:26.703Z,99417.72
2023-01-20T13:34:53.377Z,99413.44
2023-01-20T13:37:32.400Z,99415.59
2023-01-20T13:40:00.493Z,99414.63
2023-01-20T13:42:39.376Z,99413.50
2023-01-20T13:45:11.653Z,99409.78
2023-01-20T13:48:05.797Z,99412.94
2023-01-20T13:50:38.352Z,99404.38
2023-01-20T13:53:04.872Z,99412.63
2023-01-20T13:55:51.554Z,99410.19
2023-01-20T13:58:34.886Z,99401.72
2023-01-20T14:01:04.817Z,99403.19
2023-01-20T14:03:38.844Z,99407.69
2023-01-20T14:06:07.171Z,99413.44
2023-01-20T14:08:45.808Z,99415.31
2023-01-20T14:11:18.097Z,99423.88
2023-01-20T14:13:59.637Z,99421.19
2023-01-20T14:16:36.708Z,99414.81
2023-01-20T14:19:34.173Z,99423.53
2023-01-20T14:22:18.806Z,99430.19
2023-01-20T14:24:48.161Z,99422.91
2023-01-20T14:27:19.726Z,99430.56
2023-01-20T14:29:48.236Z,99440.16
2023-01-20T14:32:26.717Z,99433.72
2023-01-20T14:34:53.789Z,99430.81
2023-01-20T14:37:24.652Z,99441.72
2023-01-20T14:39:51.932Z,99435.31
2023-01-20T14:42:21.665Z,99441.13
2023-01-20T14:44:50.284Z,99434.19
2023-01-20T14:47:18.044Z,99441.13
2023-01-20T14:49:48.050Z,99444.03
2023-01-20T14:52:24.776Z,99456.31
2023-01-20T14:54:51.430Z,99453.44
2023-01-20T14:57:17.959Z,99457.97
2023-01-20T14:59:44.828Z,99453.66
2023-01-20T15:02:21.693Z,99461.34
2023-01-20T15:04:48.371Z,99462.13
2023-01-20T15:07:20.781Z,99458.09
2023-01-20T15:10:14.335Z,99457.84
2023-01-20T15:12:47.077Z,99452.44
2023-01-20T15:15:22.637Z,99455.34
2023-01-20T15:18:10.948Z,99459.28
2023-01-20T15:20:40.840Z,99460.69
2023-01-20T15:23:32.113Z,99457.91
2023-01-20T15:26:10.035Z,99460.00
2023-01-20T15:28:42.958Z,99471.50
2023-01-20T15:31:16.336Z,99459.53
2023-01-20T15:33:43.920Z,99460.69
2023-01-20T15:36:21.726Z,99457.41
2023-01-20T15:38:48.468Z,99460.69
2023-01-20T15:41:15.064Z,99459.72
2023-01-20T15:43:42.500Z,99465.63
2023-01-20T15:46:13.484Z,99456.56
2023-01-20T15:48:40.680Z,99465.97
2023-01-20T15:51:11.974Z,99467.31
2023-01-20T15:53:38.550Z,99479.59
2023-01-20T15:56:05.500Z,99469.75
2023-01-20T15:58:35.920Z,99469.50
2023-01-20T16:01:02.528Z,99478.56
2023-01-20T16:03:29.155Z,99478.47
2023-01-20T16:05:56.144Z,99473.13
2023-01-20T16:08:26.821Z,99484.28
2023-01-20T16:10:53.495Z,99485.34
2023-01-20T16:13:20.039Z,99488.72
2023-01-20T16:15:46.576Z,99497.53
2023-01-20T16:18:18.084Z,99496.47
2023-01-20T16:20:46.288Z,99491.63
2023-01-20T16:23:13.670Z,99487.34
2023-01-20T16:25:40.712Z,99493.69
2023-01-20T16:28:21.393Z,99499.97
2023-01-20T16:30:48.922Z,99506.13
2023-01-20T16:33:19.392Z,99498.50
2023-01-20T16:35:46.360Z,99508.03
2023-01-20T16:38:15.711Z,99502.59
2023-01-20T16:40:55.502Z,99509.19
2023-01-20T16:43:22.418Z,99504.78
2023-01-20T16:45:54.474Z,99505.03
2023-01-20T16:48:22.597Z,99518.38
2023-01-20T16:50:50.214Z,99505.03
2023-01-20T16:53:17.776Z,99507.09
2023-01-20T16:55:46.199Z,99503.88
2023-01-20T16:58:14.094Z,99502.81
2023-01-20T17:00:41.054Z,99498.31
2023-01-20T17:03:08.013Z,99507.25
2023-01-20T17:05:35.084Z,99501.59
2023-01-20T17:08:02.443Z,99508.53
2023-01-20T17:10:32.468Z,99503.19
2023-01-20T17:12:59.310Z,99508.63
2023-01-20T17:15:26.692Z,99516.16
2023-01-20T17:17:56.627Z,99510.81
2023-01-20T17:20:25.085Z,99510.25
2023-01-20T17:22:53.289Z,99520.22
2023-01-20T17:25:19.944Z,99518.94
2023-01-20T17:27:46.513Z,99517.41
2023-01-20T17:30:14.042Z,99520.88
2023-01-20T17:32:40.678Z,99514.28
2023-01-20T17:35:07.435Z,99515.53
2023-01-20T17:37:33.997Z,99519.03
2023-01-20T17:40:00.576Z,99522.16
2023-01-20T17:42:27.115Z,99527.50
2023-01-20T17:44:53.737Z,99523.31
2023-01-20T17:47:20.294Z,99516.94
2023-01-20T17:49:46.852Z,99521.59
2023-01-20T17:52:13.534Z,99513.59
2023-01-20T17:54:40.080Z,99508.16
2023-01-20T17:57:06.632Z,99513.16
2023-01-20T17:59:33.176Z,99509.69
2023-01-20T18:01:59.797Z,99514.44
2023-01-20T18:04:26.657Z,99513.06
2023-01-20T18:06:53.460Z,99510.16
2023-01-20T18:09:20.006Z,99508.06
2023-01-20T18:11:46.636Z,99500.31
2023-01-20T18:14:13.426Z,99511.78
2023-01-20T18:16:41.614Z,99504.25
2023-01-20T18:19:12.265Z,99508.06
2023-01-20T18:21:39.130Z,99505.25
2023-01-20T18:24:10.082Z,99510.38
2023-01-20T18:26:38.641Z,99506.06
2023-01-20T18:29:08.713Z,99503.16
2023-01-20T18:31:35.711Z,99511.50
2023-01-20T18:34:05.105Z,99508.94
2023-01-20T18:36:35.262Z,99507.31
2023-01-20T18:39:08.009Z,99509.72
2023-01-20T18:41:37.564Z,99515.19
2023-01-20T18:44:05.101Z,99511.69
2023-01-20T18:46:31.876Z,99525.03
2023-01-20T18:48:58.518Z,99517.03
2023-01-20T18:51:27.835Z,99515.41
2023-01-20T18:53:57.565Z,99513.78
2023-01-20T18:56:25.620Z,99515.41
2023-01-20T18:58:53.313Z,99514.94
2023-01-20T19:01:22.737Z,99510.06
2023-01-20T19:03:50.148Z,99510.66
2023-01-20T19:06:17.888Z,99503.13
2023-01-20T19:08:45.687Z,99500.25
2023-01-20T19:11:15.408Z,99500.38
2023-01-20T19:13:43.672Z,99495.53
2023-01-20T19:16:12.789Z,99488.56
2023-01-20T19:18:41.168Z,99507.94
2023-01-20T19:21:10.889Z,99509.19
2023-01-20T19:23:38.045Z,99510.25
2023-01-20T19:26:11.826Z,99508.06
2023-01-20T19:28:39.398Z,99495.69
2023-01-20T19:31:15.272Z,99512.94
2023-01-20T19:33:42.506Z,99518.84
2023-01-20T19:36:15.067Z,99516.19
2023-01-20T19:38:42.839Z,99521.28
2023-01-20T19:41:12.139Z,99520.34
2023-01-20T19:43:39.438Z,99528.44
2023-01-20T19:46:08.773Z,99528.56
2023-01-20T19:48:35.507Z,99524.38
2023-01-20T19:51:07.561Z,99528.16
2023-01-20T19:53:34.997Z,99520.75
2023-01-20T19:56:13.464Z,99532.53
2023-01-20T19:58:40.707Z,99529.66
2023-01-20T20:01:08.253Z,99528.25
2023-01-20T20:03:35.540Z,99530.94
2023-01-20T20:06:03.016Z,99530.94
2023-01-20T20:08:29.559Z,99532.31
2023-01-20T20:10:56.795Z,99536.94
2023-01-20T20:13:23.628Z,99536.69
2023-01-20T20:15:50.830Z,99534.84
2023-01-20T20:18:17.415Z,99529.03
2023-01-20T20:20:44.642Z,99541.63
2023-01-20T20:23:11.409Z,99539.88
2023-01-20T20:25:37.978Z,99540.94
2023-01-20T20:28:06.188Z,99538.25
2023-01-20T20:30:32.811Z,99533.97
2023-01-20T20:33:01.183Z,99535.38
2023-01-20T20:35:27.802Z,99532.44
2023-01-20T20:37:54.358Z,99536.16
2023-01-20T20:40:21.027Z,99528.06
2023-01-20T20:42:48.612Z,99531.44
2023-01-20T20:45:15.893Z,99530.66
2023-01-20T20:47:42.440Z,99529.59
2023-01-20T20:50:09.640Z,99543.41
2023-01-20T20:52:36.187Z,99528.47
2023-01-20T20:55:02.702Z,99532.97
2023-01-20T20:57:29.246Z,99527.06
2023-01-20T20:59:59.140Z,99523.00
2023-01-20T21:02:26.602Z,99527.78
2023-01-20T21:04:53.340Z,99525.13
2023-01-20T21:07:19.898Z,99522.00
2023-01-20T21:09:47.870Z,99523.00
2023-01-20T21:12:14.650Z,99521.75
2023-01-20T21:14:41.180Z,99523.38
2023-01-20T21:17:07.852Z,99534.84
2023-01-20T21:19:34.480Z,99530.88
2023-01-20T21:22:01.044Z,99524.66
2023-01-20T21:24:29.111Z,99538.69
2023-01-20T21:26:56.231Z,99533.00
2023-01-20T21:29:22.756Z,99529.78
2023-01-20T21:31:50.333Z,99532.22
2023-01-20T21:34:17.044Z,99535.13
2023-01-20T21:36:43.659Z,99537.22
2023-01-20T21:39:15.050Z,99529.44
2023-01-20T21:41:41.919Z,99537.22
2023-01-20T21:44:29.482Z,99526.31
2023-01-20T21:47:04.744Z,99533.97
2023-01-20T21:49:49.866Z,99536.06
2023-01-20T21:52:37.267Z,99532.84
2023-01-20T21:55:04.654Z,99531.78
2023-01-20T21:57:32.810Z,99536.06
2023-01-20T22:00:00.626Z,99532.34
2023-01-20T22:02:29.216Z,99537.22
2023-01-20T22:04:56.287Z,99535.13
2023-01-20T22:07:23.718Z,99541.28
2023-01-20T22:09:50.289Z,99539.41
2023-01-20T22:12:17.076Z,99537.31
2023-01-20T22:14:43.833Z,99541.28
2023-01-20T22:17:11.797Z,99545.78
2023-01-20T22:19:39.092Z,99547.03
2023-01-20T22:22:06.183Z,99549.72
2023-01-20T22:24:33.011Z,99546.72
2023-01-20T22:26:59.962Z,99550.91
2023-01-20T22:29:26.916Z,99549.31
2023-01-20T22:31:55.161Z,99556.69
2023-01-20T22:34:22.533Z,99556.38
2023-01-20T22:36:49.121Z,99555.81
2023-01-20T22:39:15.912Z,99550.69
2023-01-20T22:41:42.996Z,99556.59
2023-01-20T22:44:09.878Z,99556.84
2023-01-20T22:46:36.588Z,99560.78
2023-01-20T22:49:03.293Z,99562.97
2023-01-20T22:51:30.560Z,99570.00
2023-01-20T22:53:59.202Z,99569.00
2023-01-20T22:56:28.265Z,99574.31
2023-01-20T22:58:56.688Z,99567.34
2023-01-20T23:01:26.129Z,99568.19
2023-01-20T23:04:06.206Z,99574.91
2023-01-20T23:06:35.223Z,99575.13
2023-01-20T23:09:05.559Z,99577.56
2023-01-20T23:11:33.951Z,99581.84
2023-01-20T23:14:00.764Z,99583.69
2023-01-20T23:16:27.752Z,99589.50
2023-01-20T23:18:54.474Z,99613.69
2023-01-20T23:21:21.773Z,99614.53
2023-01-20T23:24:03.145Z,99618.22
2023-01-20T23:26:30.562Z,99625.19
2023-01-20T23:28:57.194Z,99628.63
2023-01-20T23:31:25.306Z,99619.03
2023-01-20T23:33:53.984Z,99628.91
2023-01-20T23:36:25.598Z,99637.09
2023-01-20T23:38:56.194Z,99633.41
2023-01-20T23:41:23.835Z,99633.19
2023-01-20T23:43:50.494Z,99633.28
2023-01-20T23:46:17.125Z,99638.97
2023-01-20T23:48:46.506Z,99641.38
2023-01-20T23:51:13.396Z,99633.63
2023-01-20T23:53:40.493Z,99640.59
2023-01-20T23:56:17.765Z,99651.81
2023-01-20T23:58:45.120Z,99646.97
